Monday, February 19, 2018, 4:59 AM EST
Back to Local

KROC, Greater Rochester International

Location: Rochester, NY, United States Lat: 43.117
Local Time: 4:59 AM EST ( 9:59 GMT) Lon: -77.683
Time Zone: US/Eastern Elev: 557 ft

Show me the last for .
Show Decoded

2018-02-19 03:54 METAR KROC 190854Z 19012G18KT 10SM BKN180 OVC250 04/M03 A3018 RMK AO2 SLP228
                 T00391033 58024 =
2018-02-19 02:54 METAR KROC 190754Z 17007KT 10SM SCT140 BKN200 01/M05 A3020 RMK AO2 SLP236
                 T00111050 =
2018-02-19 01:54 METAR KROC 190654Z 14003KT 10SM SCT200 OVC250 00/M06 A3023 RMK AO2 SLP246 BINOVC
                 T00001056 =
2018-02-19 00:54 METAR KROC 190554Z 17007KT 10SM BKN200 OVC250 00/M05 A3025 RMK AO2 SLP253
                 T00001050 10000 21028 56031 =
2018-02-18 23:54 METAR KROC 190454Z 16005KT 10SM BKN200 M01/M06 A3027 RMK AO2 SLP260 T10061056
                 400331039 =
2018-02-18 22:54 METAR KROC 190354Z 15010KT 10SM BKN200 00/M06 A3030 RMK AO2 SLP270 T00001056 =
2018-02-18 21:54 METAR KROC 190254Z 16007KT 10SM SCT200 M01/M06 A3035 RMK AO2 SLP286 T10061056
                 56021 =
2018-02-18 20:54 METAR KROC 190154Z 14006KT 10SM SCT200 M02/M06 A3036 RMK AO2 SLP291 T10171056 =
2018-02-18 19:54 METAR KROC 190054Z 12003KT 10SM BKN200 M02/M06 A3039 RMK AO2 SLP301 T10221056 =
2018-02-18 18:54 METAR KROC 182354Z 00000KT 10SM FEW035 BKN200 00/M06 A3041 RMK AO2 SLP308
                 T00001056 10033 21006 51018 =
2018-02-18 17:54 METAR KROC 182254Z 31004KT 10SM FEW035 BKN200 01/M06 A3041 RMK AO2 SLP307
                 T00111056 =
2018-02-18 16:54 METAR KROC 182154Z 26007KT 10SM SCT037 BKN200 02/M06 A3037 RMK AO2 SLP296
                 T00221056 =
2018-02-18 15:54 METAR KROC 182054Z 23010KT 10SM BKN039 03/M06 A3036 RMK AO2 SLP289 T00281056
                 53009 =
2018-02-18 14:54 METAR KROC 181954Z 24010KT 10SM FEW028 BKN040 02/M06 A3034 RMK AO2 SLP283
                 T00221056 =
2018-02-18 13:54 METAR KROC 181854Z 25014KT 10SM SCT028 BKN042 03/M05 A3033 RMK AO2 SLP282
                 T00281050 =
2018-02-18 12:54 METAR KROC 181754Z 27013KT 10SM SCT024 BKN045 02/M04 A3033 RMK AO2 SLP281
                 T00221044 10022 21017 50010 =
2018-02-18 11:54 METAR KROC 181654Z 26014KT 10SM SCT022 OVC046 02/M03 A3034 RMK AO2 SLP283
                 T00221028 =
2018-02-18 10:54 METAR KROC 181554Z 27011KT 10SM OVC045 02/M03 A3030 RMK AO2 SLP272 T00171033 =
2018-02-18 09:54 METAR KROC 181454Z 26012KT 10SM OVC038 01/M03 A3030 RMK AO2 SLP271 T00061028
                 51033 =
2018-02-18 08:54 METAR KROC 181354Z 25008KT 10SM OVC031 00/M03 A3028 RMK AO2 SLP263 T00001028 =
2018-02-18 07:54 METAR KROC 181254Z 25011KT 10SM OVC040 M01/M03 A3026 RMK AO2 SLP257 T10061033 $
                 =
2018-02-18 06:54 METAR KROC 181154Z COR 26009KT 10SM SCT027 M02/M04 A3020 RMK AO2 SLP237 4/001
                 60000 70003 T10171039 11011 21039 $ =
2018-02-18 05:54 METAR KROC 181054Z 26009KT 9SM OVC027 M02/M03 A3016 RMK AO2 SLP222 T10171033 =
2018-02-18 05:44 METAR KROC 181044Z 27008KT 9SM BKN027 M02/M04 A3016 RMK AO2 T10221039 =

Support USWX by starting your Amazon purchase here.